Ana Sayfa
METAR-TAF:

METAR-TAF

Havaalanları :

Midland, Teksas, Amerika Birleşik Devletleri

Enlem: 32-02-11N, Boylam: 102-06-03W, yükseklik: 854 m

Güncel hava durumu gözlemi

Rapor saat 05:55 UTC de 25 dakika önce yapıldı.
Rüzgar doğudan 6 kt
Sıcaklık 23°C
Nem 44%
Basınç 1024 hPa
Görüş mesafesi: 16.1 km
Açık gökyüzü

METAR: KMDD 240555Z AUTO 10006KT 10SM CLR 23/10 A3024 RMK AO2 T02310101 10305 20231

Saat: 01:20 (06:20 UTC)


TAF: eksik

4.000'den fazla havaalanı için hava durumu gözlemleri ve tahminleri (METAR ve TAF raporları).

Kullanılabilir istasyonlar harita üzerinde sarı ve kırmızı noktalarla gösterilir.

İstasyonun adını görmek için fareyi noktanın üzerinde gezdirin.

Sonrasında hava gözlem ve tahminlerini görmek için tıklayın.

Haritayı değiştirmek için: yaklaştırmak için siyah artı işaretli yeşil düğmeye ve uzaklaştırmak için de eksi işaretli düğmeye hızla tıklayın; bitişik haritalar için yeşil okları kullanın.


METAR-TAF: